Time;durP1;ratioP1;P1;durP2;ratioP2;P2;SDS_P1;SDS_P2;PMS_P1;PMS_P2;Temp;Humidity;BMP_temperature;BMP_pressure;BME280_temperature;BME280_humidity;BME280_pressure;Samples;Min_cycle;Max_cycle;Signal;HPM_P1;HPM_P2
2023/09/06 00:01:33;;;;;;;3.35;3.00;;;21.90;71.70;;;;;;4969148;28;20031;-58
2023/09/06 00:03:59;;;;;;;3.95;2.80;;;21.90;71.70;;;;;;4968676;28;20030;-58
2023/09/06 00:06:24;;;;;;;3.97;3.55;;;21.90;71.70;;;;;;4968072;28;20035;-56
2023/09/06 00:08:50;;;;;;;3.30;3.00;;;21.80;71.70;;;;;;4972673;28;20027;-60
2023/09/06 00:11:16;;;;;;;4.90;3.10;;;21.90;71.70;;;;;;4970469;28;20044;-60
2023/09/06 00:13:42;;;;;;;3.83;3.42;;;21.90;71.70;;;;;;4975822;28;20051;-58
2023/09/06 00:16:07;;;;;;;3.42;3.13;;;21.80;71.70;;;;;;4972593;28;20057;-57
2023/09/06 00:18:33;;;;;;;3.30;3.00;;;21.90;71.70;;;;;;4967149;28;20269;-60
2023/09/06 00:20:59;;;;;;;3.28;2.90;;;21.90;71.70;;;;;;4971716;28;20651;-58
2023/09/06 00:23:25;;;;;;;3.72;3.20;;;21.90;71.70;;;;;;4970513;28;20053;-60
2023/09/06 00:25:52;;;;;;;4.65;3.38;;;21.80;71.70;;;;;;4966028;28;20042;-60
2023/09/06 00:28:19;;;;;;;3.72;3.08;;;21.90;71.70;;;;;;4964693;28;20346;-60
2023/09/06 00:30:45;;;;;;;3.33;2.90;;;21.80;71.70;;;;;;4967991;28;20105;-60
2023/09/06 00:33:11;;;;;;;3.30;2.95;;;21.80;71.70;;;;;;4968177;28;20061;-57
2023/09/06 00:35:38;;;;;;;3.55;3.08;;;21.80;71.70;;;;;;4967649;28;20061;-60
2023/09/06 00:38:07;;;;;;;3.60;3.22;;;21.80;71.70;;;;;;4970294;28;20096;-57
2023/09/06 00:40:36;;;;;;;3.58;3.28;;;21.90;71.70;;;;;;4964952;28;20034;-60
2023/09/06 00:43:03;;;;;;;3.45;3.15;;;21.80;71.70;;;;;;4973209;28;20038;-57
2023/09/06 00:45:36;;;;;;;3.55;3.10;;;21.80;71.70;;;;;;4952253;28;20034;-60
2023/09/06 00:48:05;;;;;;;3.25;2.95;;;21.90;71.70;;;;;;4963907;28;20495;-60
2023/09/06 00:50:33;;;;;;;3.72;3.30;;;21.80;71.60;;;;;;4969576;28;20058;-58
2023/09/06 00:52:59;;;;;;;3.10;2.80;;;21.80;71.60;;;;;;4970388;28;20038;-58
2023/09/06 00:55:26;;;;;;;3.33;2.95;;;21.80;71.50;;;;;;4967551;28;20027;-59
2023/09/06 00:57:52;;;;;;;5.45;3.95;;;21.90;71.60;;;;;;4967747;28;20066;-61
2023/09/06 01:00:19;;;;;;;4.05;3.65;;;21.90;71.60;;;;;;4965421;28;20148;-59
2023/09/06 01:02:48;;;;;;;3.55;3.25;;;21.80;71.50;;;;;;4967594;28;20097;-57
2023/09/06 01:05:14;;;;;;;3.50;3.20;;;21.80;71.50;;;;;;4965828;28;20109;-59
2023/09/06 01:07:51;;;;;;;3.80;3.40;;;21.80;71.50;;;;;;4971167;28;20459;-57
2023/09/06 01:10:17;;;;;;;3.38;3.08;;;21.80;71.50;;;;;;4968357;28;20903;-58
2023/09/06 01:12:43;;;;;;;4.22;3.35;;;21.80;71.50;;;;;;4972780;28;20065;-59
2023/09/06 01:15:10;;;;;;;4.90;3.30;;;21.90;71.50;;;;;;4965331;28;20153;-58
2023/09/06 01:17:38;;;;;;;4.40;3.20;;;21.80;71.50;;;;;;4966168;28;20053;-57
2023/09/06 01:20:32;;;;;;;4.20;3.33;;;21.80;72.10;;;;;;4969812;28;20030;-58
2023/09/06 01:23:04;;;;;;;5.05;3.20;;;21.80;71.50;;;;;;4967822;28;20026;-58
2023/09/06 01:25:30;;;;;;;4.05;3.53;;;21.80;71.50;;;;;;4961510;28;20504;-58
2023/09/06 01:27:56;;;;;;;3.50;3.20;;;21.90;71.50;;;;;;4944854;28;20476;-59
2023/09/06 01:30:27;;;;;;;3.80;3.30;;;21.80;71.50;;;;;;4963740;28;20042;-59
2023/09/06 01:32:52;;;;;;;3.58;3.13;;;21.90;71.60;;;;;;4950832;28;20046;-58
2023/09/06 01:35:18;;;;;;;3.33;3.03;;;21.80;71.50;;;;;;4968049;28;20469;-59
2023/09/06 01:37:44;;;;;;;3.38;3.08;;;21.80;71.50;;;;;;4955497;28;20399;-58
2023/09/06 01:40:14;;;;;;;3.78;3.10;;;21.80;71.50;;;;;;4967676;28;20126;-57
2023/09/06 01:42:40;;;;;;;3.70;3.03;;;21.80;71.50;;;;;;4966837;28;20035;-58
2023/09/06 01:45:06;;;;;;;3.05;2.75;;;21.80;71.50;;;;;;4967231;28;20046;-59
2023/09/06 01:47:32;;;;;;;2.88;2.67;;;21.80;71.50;;;;;;4960352;28;20600;-58
2023/09/06 01:49:57;;;;;;;3.20;2.90;;;21.90;71.50;;;;;;4966657;28;20114;-60
2023/09/06 01:52:23;;;;;;;3.50;3.10;;;21.80;71.50;;;;;;4965349;28;20272;-58
2023/09/06 01:54:48;;;;;;;3.65;3.35;;;21.80;71.50;;;;;;4965739;28;20031;-58
2023/09/06 01:57:14;;;;;;;3.97;3.20;;;21.80;71.50;;;;;;4964773;28;20050;-58
2023/09/06 01:59:39;;;;;;;3.30;2.97;;;21.80;71.50;;;;;;4963340;28;20027;-58
2023/09/06 02:02:05;;;;;;;4.03;2.90;;;21.80;71.50;;;;;;4965967;28;20476;-58
2023/09/06 02:07:55;;;;;;;3.42;3.13;;;21.80;71.50;;;;;;4956851;28;20723;-58
2023/09/06 02:10:21;;;;;;;3.53;2.88;;;21.80;71.50;;;;;;4965441;28;20039;-59
2023/09/06 02:12:46;;;;;;;3.53;3.22;;;21.80;71.50;;;;;;4965739;28;20428;-58
2023/09/06 02:15:14;;;;;;;3.92;3.30;;;21.80;71.50;;;;;;4969820;28;20097;-58
2023/09/06 02:17:43;;;;;;;3.47;3.13;;;21.80;71.50;;;;;;4964852;28;20045;-58
2023/09/06 02:20:19;;;;;;;3.72;3.38;;;21.80;71.50;;;;;;4969175;28;20039;-58
2023/09/06 02:22:46;;;;;;;3.25;2.85;;;21.80;71.50;;;;;;4963955;28;20077;-59
2023/09/06 02:25:13;;;;;;;3.50;3.15;;;21.80;71.50;;;;;;4961033;28;20747;-58
2023/09/06 02:27:40;;;;;;;3.88;3.47;;;21.80;71.50;;;;;;4968091;28;20241;-58
2023/09/06 02:33:37;;;;;;;4.38;3.28;;;21.80;71.50;;;;;;4974914;28;20046;-55
2023/09/06 02:36:03;;;;;;;3.67;3.38;;;21.80;71.50;;;;;;4968367;28;20134;-62
2023/09/06 02:38:28;;;;;;;3.53;2.80;;;21.80;71.40;;;;;;4973918;28;20093;-57
2023/09/06 02:40:54;;;;;;;3.83;3.42;;;21.80;71.50;;;;;;4975225;28;20034;-56
2023/09/06 02:43:19;;;;;;;3.67;3.38;;;21.80;71.50;;;;;;4967152;28;20543;-58
2023/09/06 02:45:49;;;;;;;3.40;3.10;;;21.80;71.40;;;;;;4969806;28;20031;-59
2023/09/06 02:48:18;;;;;;;3.47;3.17;;;21.80;71.40;;;;;;4968909;28;20081;-58
2023/09/06 02:50:49;;;;;;;3.38;3.03;;;21.80;71.40;;;;;;4970586;28;21218;-58
2023/09/06 02:53:19;;;;;;;3.42;3.13;;;21.80;71.40;;;;;;4965411;28;20047;-58
2023/09/06 02:55:51;;;;;;;4.30;3.90;;;21.80;71.40;;;;;;4969698;28;20092;-58
2023/09/06 03:01:44;;;;;;;7.00;3.42;;;21.80;71.40;;;;;;4960498;28;20400;-58
2023/09/06 03:04:13;;;;;;;4.55;3.30;;;21.80;71.40;;;;;;4968431;28;20034;-58
2023/09/06 03:06:43;;;;;;;3.78;3.38;;;21.80;71.40;;;;;;4973680;28;20041;-58
2023/09/06 03:09:12;;;;;;;4.22;3.35;;;21.80;71.30;;;;;;4972051;28;20062;-59
2023/09/06 03:11:38;;;;;;;3.50;3.20;;;21.80;71.30;;;;;;4970467;28;20031;-59
2023/09/06 03:14:05;;;;;;;3.70;3.35;;;21.80;71.30;;;;;;4964209;28;20645;-59
2023/09/06 03:16:53;;;;;;;3.53;3.22;;;21.80;71.30;;;;;;4969122;28;20054;-58
2023/09/06 03:19:18;;;;;;;3.47;3.17;;;21.80;71.40;;;;;;4971635;28;20615;-56
2023/09/06 03:21:44;;;;;;;3.47;3.17;;;21.80;71.30;;;;;;4965915;28;21318;-60
2023/09/06 03:24:12;;;;;;;4.63;3.33;;;21.80;71.30;;;;;;4970312;28;20026;-59
2023/09/06 03:26:44;;;;;;;3.42;3.05;;;21.70;71.30;;;;;;4966193;28;20040;-57
2023/09/06 03:29:10;;;;;;;3.67;3.35;;;21.80;71.30;;;;;;4942449;28;20461;-58
2023/09/06 03:31:42;;;;;;;3.38;3.00;;;21.70;71.30;;;;;;4970829;28;20038;-58
2023/09/06 03:34:13;;;;;;;3.40;3.10;;;21.80;71.30;;;;;;4969899;28;20165;-58
2023/09/06 03:36:40;;;;;;;3.08;2.78;;;21.70;71.30;;;;;;4973810;28;20528;-59
2023/09/06 03:39:13;;;;;;;3.80;3.40;;;21.70;71.30;;;;;;4973404;28;20671;-57
2023/09/06 03:42:01;;;;;;;3.25;2.95;;;21.80;71.30;;;;;;4964896;28;20034;-56
2023/09/06 03:51:13;;;;;;;4.82;3.20;;;21.70;71.30;;;;;;4919624;28;20055;-57
2023/09/06 03:53:38;;;;;;;3.40;3.08;;;21.80;71.30;;;;;;4954404;28;20039;-58
2023/09/06 03:56:05;;;;;;;2.67;2.47;;;21.70;71.20;;;;;;4966506;28;20030;-57
2023/09/06 03:58:31;;;;;;;4.15;3.75;;;21.70;71.20;;;;;;4970903;28;20393;-59
2023/09/06 04:00:57;;;;;;;3.30;3.00;;;21.70;71.20;;;;;;4973859;28;20031;-59
2023/09/06 04:03:23;;;;;;;3.38;3.08;;;21.70;71.20;;;;;;4969180;28;20093;-58
2023/09/06 04:05:50;;;;;;;3.75;3.45;;;21.70;71.20;;;;;;4966662;28;20030;-59
2023/09/06 04:08:17;;;;;;;3.60;3.30;;;21.70;71.30;;;;;;4969319;28;20038;-58
2023/09/06 04:10:44;;;;;;;4.55;3.25;;;21.70;71.20;;;;;;4966966;28;20031;-59
2023/09/06 04:13:11;;;;;;;3.22;2.92;;;21.70;71.20;;;;;;4953970;28;20127;-58
2023/09/06 04:15:38;;;;;;;3.35;3.00;;;21.70;71.20;;;;;;4969944;28;20034;-57
2023/09/06 04:18:05;;;;;;;3.30;2.78;;;21.70;71.20;;;;;;4968349;28;20047;-58
2023/09/06 04:20:39;;;;;;;3.60;3.15;;;21.70;71.20;;;;;;4966963;28;20035;-58
2023/09/06 04:23:06;;;;;;;3.80;3.38;;;21.70;71.20;;;;;;4966703;28;20496;-58
2023/09/06 04:29:02;;;;;;;3.67;2.72;;;21.70;71.20;;;;;;4954949;28;20045;-58
2023/09/06 04:31:28;;;;;;;4.18;2.90;;;21.70;71.20;;;;;;4969918;28;20114;-59
2023/09/06 04:33:54;;;;;;;3.33;2.80;;;21.70;71.20;;;;;;4972834;28;20383;-58
2023/09/06 04:36:19;;;;;;;3.22;2.92;;;21.70;71.30;;;;;;4969802;28;20117;-60
2023/09/06 04:38:46;;;;;;;3.30;2.88;;;21.70;71.20;;;;;;4969069;28;20062;-58
2023/09/06 04:41:13;;;;;;;3.47;2.78;;;21.70;71.20;;;;;;4963424;28;20429;-59
2023/09/06 04:43:38;;;;;;;3.60;3.20;;;21.70;71.20;;;;;;4970626;28;20040;-58
2023/09/06 04:46:04;;;;;;;2.85;2.65;;;21.60;71.20;;;;;;4966409;28;20034;-58
2023/09/06 04:48:29;;;;;;;2.60;2.40;;;21.70;71.20;;;;;;4966187;28;20059;-57
2023/09/06 04:50:56;;;;;;;2.67;2.45;;;21.60;71.80;;;;;;4968377;28;20034;-57
2023/09/06 04:53:22;;;;;;;3.28;2.97;;;21.70;71.20;;;;;;4967387;28;20165;-58
2023/09/06 04:55:49;;;;;;;3.35;3.05;;;21.60;71.10;;;;;;4971728;28;20038;-59
2023/09/06 04:58:14;;;;;;;2.97;2.67;;;21.60;71.10;;;;;;4967007;28;20047;-61
2023/09/06 05:00:47;;;;;;;4.78;3.38;;;21.70;71.20;;;;;;4971847;28;20026;-58
2023/09/06 05:03:17;;;;;;;3.28;2.97;;;21.60;71.10;;;;;;4970881;28;20030;-58
2023/09/06 05:05:43;;;;;;;3.00;2.70;;;21.70;71.10;;;;;;4968207;28;20034;-57
2023/09/06 05:08:09;;;;;;;2.95;2.60;;;21.70;71.10;;;;;;4963582;28;20027;-59
2023/09/06 05:10:35;;;;;;;3.72;2.75;;;21.70;71.10;;;;;;4966666;28;20038;-58
2023/09/06 05:13:01;;;;;;;2.40;2.20;;;21.70;71.10;;;;;;4969011;28;20134;-58
2023/09/06 05:15:27;;;;;;;4.28;2.47;;;21.70;71.10;;;;;;4965934;28;20125;-58
2023/09/06 05:17:53;;;;;;;2.78;2.58;;;21.60;71.10;;;;;;4964723;28;20049;-58
2023/09/06 05:20:33;;;;;;;3.00;2.70;;;21.60;71.10;;;;;;4965481;28;20034;-57
2023/09/06 05:23:01;;;;;;;4.70;2.25;;;21.60;71.10;;;;;;4967019;28;20082;-58
2023/09/06 05:25:26;;;;;;;3.40;2.80;;;21.60;71.90;;;;;;4966190;28;20035;-57
2023/09/06 05:27:56;;;;;;;4.35;2.70;;;21.60;71.30;;;;;;4971409;28;20031;-59
2023/09/06 05:30:22;;;;;;;4.68;2.53;;;21.60;71.30;;;;;;4966761;28;20118;-58
2023/09/06 05:32:48;;;;;;;2.78;2.50;;;21.60;71.20;;;;;;4951112;28;20208;-58
2023/09/06 05:35:13;;;;;;;3.60;2.40;;;21.60;71.20;;;;;;4966822;28;20030;-59
2023/09/06 05:37:40;;;;;;;6.35;3.17;;;21.60;71.10;;;;;;4964085;28;20030;-59
2023/09/06 05:40:07;;;;;;;5.13;3.08;;;21.60;71.00;;;;;;4964333;28;20051;-58
2023/09/06 05:42:32;;;;;;;3.63;3.05;;;21.60;70.90;;;;;;4968531;28;21160;-58
2023/09/06 05:44:58;;;;;;;8.15;2.70;;;21.60;70.90;;;;;;4970015;28;20027;-58
2023/09/06 05:47:23;;;;;;;3.22;2.90;;;21.60;70.70;;;;;;4962334;28;20030;-58
2023/09/06 05:49:52;;;;;;;3.15;2.83;;;21.60;70.60;;;;;;4966301;28;20034;-58
2023/09/06 05:52:17;;;;;;;5.57;2.72;;;21.70;70.40;;;;;;4965504;28;20046;-58
2023/09/06 05:54:44;;;;;;;3.95;2.92;;;21.60;70.40;;;;;;4968323;28;20034;-58
2023/09/06 05:57:10;;;;;;;4.63;3.47;;;21.60;70.30;;;;;;4965850;28;20480;-58
2023/09/06 05:59:36;;;;;;;4.25;3.47;;;21.70;70.10;;;;;;4967195;28;20035;-58
2023/09/06 06:02:02;;;;;;;7.05;4.38;;;21.70;70.10;;;;;;4972560;28;20031;-58
2023/09/06 06:04:28;;;;;;;4.63;3.63;;;21.70;70.00;;;;;;4973680;28;20019;-58
2023/09/06 06:06:54;;;;;;;4.15;3.60;;;21.70;69.90;;;;;;4967242;28;20058;-58
2023/09/06 06:09:21;;;;;;;5.85;3.63;;;21.60;69.80;;;;;;4971488;28;20162;-58
2023/09/06 06:11:47;;;;;;;4.40;3.88;;;21.70;69.80;;;;;;4971998;28;20736;-56
2023/09/06 06:14:13;;;;;;;4.43;3.72;;;21.70;69.80;;;;;;4976135;28;20059;-56
2023/09/06 06:16:38;;;;;;;5.13;3.50;;;21.60;69.70;;;;;;4966686;28;20114;-58
2023/09/06 06:19:04;;;;;;;4.55;4.15;;;21.70;69.80;;;;;;4970921;28;20522;-58
2023/09/06 06:21:31;;;;;;;4.50;3.60;;;21.70;69.80;;;;;;4969550;28;20039;-58
2023/09/06 06:23:57;;;;;;;4.18;3.78;;;21.70;69.70;;;;;;4972255;28;20113;-56
2023/09/06 06:26:23;;;;;;;4.28;3.83;;;21.60;69.70;;;;;;4972030;28;20035;-58
2023/09/06 06:28:49;;;;;;;4.88;3.97;;;21.60;69.70;;;;;;4972023;28;20085;-59
2023/09/06 06:31:14;;;;;;;4.13;3.72;;;21.60;69.70;;;;;;4970580;28;20066;-57
2023/09/06 06:33:40;;;;;;;9.93;3.97;;;21.70;69.80;;;;;;4972694;28;20093;-58
2023/09/06 06:36:06;;;;;;;4.65;3.80;;;21.60;69.80;;;;;;4968492;28;20039;-58
2023/09/06 06:38:32;;;;;;;3.72;3.25;;;21.60;70.20;;;;;;4969321;28;20034;-58
2023/09/06 06:40:57;;;;;;;4.47;3.70;;;21.70;70.40;;;;;;4971562;28;20027;-56
2023/09/06 06:43:23;;;;;;;5.82;4.05;;;21.60;70.30;;;;;;4966920;28;20174;-59
2023/09/06 06:45:55;;;;;;;4.88;3.85;;;21.70;70.40;;;;;;4967896;28;20030;-58
2023/09/06 06:48:21;;;;;;;7.68;3.88;;;21.70;70.40;;;;;;4965712;28;20027;-58
2023/09/06 06:50:47;;;;;;;4.05;3.70;;;21.70;70.40;;;;;;4969187;28;20374;-58
2023/09/06 06:53:12;;;;;;;4.85;4.15;;;21.70;70.40;;;;;;4952452;28;20039;-58
2023/09/06 06:55:38;;;;;;;3.97;3.47;;;21.60;70.30;;;;;;4968959;28;20039;-55
2023/09/06 06:58:05;;;;;;;6.57;3.50;;;21.70;70.30;;;;;;4970508;28;20128;-57
2023/09/06 07:00:31;;;;;;;4.70;3.65;;;21.70;70.30;;;;;;4975940;28;20035;-59
2023/09/06 07:02:58;;;;;;;5.05;3.75;;;21.70;70.20;;;;;;4972532;28;20023;-58
2023/09/06 07:05:23;;;;;;;3.72;3.33;;;21.70;70.20;;;;;;4951913;28;20542;-60
2023/09/06 07:07:49;;;;;;;4.32;3.40;;;21.70;70.30;;;;;;4969647;28;20034;-58
2023/09/06 07:10:15;;;;;;;3.88;3.47;;;21.70;70.20;;;;;;4967148;28;20054;-58
2023/09/06 07:12:41;;;;;;;4.22;3.67;;;21.70;70.30;;;;;;4965701;28;20035;-58
2023/09/06 07:15:07;;;;;;;3.78;3.40;;;21.70;70.10;;;;;;4968133;28;20035;-60
2023/09/06 07:17:33;;;;;;;4.20;3.58;;;21.60;70.00;;;;;;4965194;28;20153;-59
2023/09/06 07:19:58;;;;;;;5.07;3.83;;;21.70;69.90;;;;;;4969778;28;20066;-60
2023/09/06 07:22:24;;;;;;;4.25;3.45;;;21.60;69.80;;;;;;4967391;28;20057;-59
2023/09/06 07:24:50;;;;;;;5.32;3.85;;;21.60;69.80;;;;;;4973483;28;20038;-64
2023/09/06 07:27:16;;;;;;;6.50;3.22;;;21.70;69.80;;;;;;4970934;28;20035;-60
2023/09/06 07:29:41;;;;;;;3.38;3.08;;;21.60;69.70;;;;;;4972486;28;20063;-59
2023/09/06 07:32:07;;;;;;;3.85;3.42;;;21.60;69.80;;;;;;4970068;28;20055;-60
2023/09/06 07:34:33;;;;;;;4.75;3.40;;;21.70;69.70;;;;;;4967743;28;20030;-59
2023/09/06 07:36:58;;;;;;;4.72;3.67;;;21.60;69.80;;;;;;4967591;28;20569;-57
2023/09/06 07:39:24;;;;;;;4.05;3.53;;;21.60;69.70;;;;;;4973621;28;20026;-60
2023/09/06 07:41:52;;;;;;;3.83;3.50;;;21.60;69.80;;;;;;4974198;28;20034;-59
2023/09/06 07:44:18;;;;;;;5.63;4.05;;;21.60;69.80;;;;;;4968127;28;20133;-60
2023/09/06 07:46:48;;;;;;;6.72;4.05;;;21.60;69.80;;;;;;4969313;28;20031;-59
2023/09/06 07:49:18;;;;;;;3.45;2.95;;;21.60;69.90;;;;;;4969959;28;20073;-59
2023/09/06 07:51:44;;;;;;;3.58;3.28;;;21.60;70.10;;;;;;4971102;28;20042;-58
2023/09/06 07:54:10;;;;;;;3.92;3.50;;;21.60;70.10;;;;;;4970501;28;20396;-60
2023/09/06 07:56:36;;;;;;;5.18;3.40;;;21.60;70.10;;;;;;4970118;28;20519;-57
2023/09/06 07:59:01;;;;;;;3.20;2.88;;;21.60;70.10;;;;;;4975756;28;20039;-60
2023/09/06 08:01:27;;;;;;;3.50;3.20;;;21.60;70.20;;;;;;4970423;28;21470;-60
2023/09/06 08:03:52;;;;;;;4.60;3.58;;;21.60;70.20;;;;;;4969482;28;20038;-59
2023/09/06 08:06:18;;;;;;;3.95;3.03;;;21.60;70.20;;;;;;4969363;28;20027;-57
2023/09/06 08:08:43;;;;;;;3.85;3.00;;;21.60;70.30;;;;;;4969091;28;20030;-60
2023/09/06 08:11:10;;;;;;;4.05;3.08;;;21.60;70.30;;;;;;4973082;28;20046;-58
2023/09/06 08:13:37;;;;;;;4.07;3.28;;;21.60;70.30;;;;;;4966882;28;20445;-57
2023/09/06 08:16:03;;;;;;;4.20;3.35;;;21.60;70.50;;;;;;4969055;28;20032;-58
2023/09/06 08:18:28;;;;;;;3.97;3.03;;;21.60;70.50;;;;;;4970292;28;20886;-58
2023/09/06 08:20:54;;;;;;;3.50;3.00;;;21.60;70.50;;;;;;4970909;28;20580;-61
2023/09/06 08:23:19;;;;;;;3.83;3.10;;;21.60;70.60;;;;;;4966726;28;20036;-60
2023/09/06 08:25:46;;;;;;;4.50;3.13;;;21.60;70.50;;;;;;4967389;28;20085;-60
2023/09/06 08:28:14;;;;;;;4.15;3.20;;;21.60;70.40;;;;;;4965811;28;20034;-60
2023/09/06 08:30:41;;;;;;;6.65;3.38;;;21.60;70.50;;;;;;4967693;28;20119;-59
2023/09/06 08:33:07;;;;;;;5.38;2.65;;;21.60;70.50;;;;;;4966292;28;20093;-58
2023/09/06 08:35:33;;;;;;;3.25;2.95;;;21.60;70.50;;;;;;4967996;28;20031;-57
2023/09/06 08:37:58;;;;;;;4.60;3.00;;;21.60;70.50;;;;;;4966682;28;20027;-60
2023/09/06 08:40:24;;;;;;;3.30;3.00;;;21.60;70.40;;;;;;4967510;28;20590;-59
2023/09/06 08:42:52;;;;;;;4.82;3.00;;;21.60;70.50;;;;;;4966176;28;20419;-60
2023/09/06 08:45:21;;;;;;;3.13;2.83;;;21.60;70.30;;;;;;4941289;28;20188;-59
2023/09/06 08:47:48;;;;;;;3.38;3.08;;;21.60;70.50;;;;;;4969163;28;20034;-58
2023/09/06 08:50:14;;;;;;;3.38;2.83;;;21.60;70.40;;;;;;4953481;28;20027;-57
2023/09/06 08:52:42;;;;;;;2.72;2.50;;;21.60;70.40;;;;;;4970133;28;20049;-57
2023/09/06 08:55:10;;;;;;;3.53;2.97;;;21.60;70.50;;;;;;4957778;28;20122;-57
2023/09/06 08:57:40;;;;;;;4.40;3.00;;;21.60;70.40;;;;;;4931203;28;20106;-57
2023/09/06 09:00:09;;;;;;;3.78;2.70;;;21.60;70.50;;;;;;4970830;28;20031;-58
2023/09/06 09:02:46;;;;;;;4.00;2.80;;;21.60;70.50;;;;;;4968830;28;20465;-58
2023/09/06 09:05:12;;;;;;;3.78;3.17;;;21.60;70.60;;;;;;4969777;28;20109;-58
2023/09/06 09:07:38;;;;;;;3.30;3.00;;;21.60;70.60;;;;;;4963898;28;20042;-60
2023/09/06 09:10:07;;;;;;;5.97;2.47;;;21.60;70.70;;;;;;4968548;28;20133;-59
2023/09/06 09:12:34;;;;;;;5.03;2.78;;;21.60;70.70;;;;;;4966280;28;20039;-59
2023/09/06 09:15:02;;;;;;;3.15;2.85;;;21.60;70.70;;;;;;4968546;28;20225;-59
2023/09/06 09:17:29;;;;;;;4.05;2.88;;;21.60;70.70;;;;;;4971497;28;20057;-60
2023/09/06 09:19:56;;;;;;;3.65;2.80;;;21.60;70.70;;;;;;4966592;28;20058;-57
2023/09/06 09:22:28;;;;;;;4.68;2.50;;;21.60;70.80;;;;;;4965630;28;20810;-59
2023/09/06 09:25:04;;;;;;;3.15;2.78;;;21.60;70.70;;;;;;4969572;28;20771;-58
2023/09/06 09:27:36;;;;;;;3.50;2.47;;;21.60;70.80;;;;;;4970050;28;21304;-59
2023/09/06 09:30:03;;;;;;;3.17;2.40;;;21.60;71.50;;;;;;4951718;28;20039;-60
2023/09/06 09:32:30;;;;;;;3.53;3.22;;;21.60;70.80;;;;;;4964617;28;20188;-57
2023/09/06 09:34:55;;;;;;;3.50;2.80;;;21.60;70.90;;;;;;4970222;28;20023;-58
2023/09/06 09:37:22;;;;;;;3.53;2.47;;;21.60;70.90;;;;;;4970235;28;20030;-60
2023/09/06 09:39:48;;;;;;;2.95;2.65;;;21.60;70.90;;;;;;4971137;28;20041;-59
2023/09/06 09:42:14;;;;;;;4.47;2.70;;;21.60;70.90;;;;;;4971534;28;20420;-60
2023/09/06 09:44:40;;;;;;;4.13;2.70;;;21.60;70.90;;;;;;4969106;28;20121;-59
2023/09/06 09:47:14;;;;;;;2.85;2.47;;;21.60;70.90;;;;;;4975651;28;20097;-58
2023/09/06 09:49:41;;;;;;;4.13;2.65;;;21.60;70.90;;;;;;4971586;28;20173;-60
2023/09/06 09:52:14;;;;;;;2.65;2.28;;;21.60;70.90;;;;;;4968625;28;20150;-60
2023/09/06 09:54:47;;;;;;;4.95;2.60;;;21.60;70.80;;;;;;4972895;28;20038;-59
2023/09/06 09:57:14;;;;;;;7.45;2.55;;;21.60;70.90;;;;;;4974588;28;20026;-59
2023/09/06 09:59:40;;;;;;;2.53;2.33;;;21.60;70.80;;;;;;4965422;28;20398;-60
2023/09/06 10:02:09;;;;;;;3.90;2.95;;;21.60;70.80;;;;;;4969400;28;20113;-59
2023/09/06 10:04:42;;;;;;;3.03;2.60;;;21.60;70.80;;;;;;4970279;28;20035;-58
2023/09/06 10:07:11;;;;;;;4.40;2.60;;;21.60;70.80;;;;;;4972079;28;20736;-60
2023/09/06 10:09:39;;;;;;;3.38;2.30;;;21.60;70.80;;;;;;4969543;28;20218;-60
2023/09/06 10:12:07;;;;;;;2.50;2.30;;;21.60;70.70;;;;;;4970360;28;20030;-59
2023/09/06 10:14:33;;;;;;;2.63;2.30;;;21.60;70.80;;;;;;4937373;28;20056;-58
2023/09/06 10:17:00;;;;;;;2.42;2.22;;;21.60;70.70;;;;;;4975934;28;20109;-58
2023/09/06 10:19:27;;;;;;;2.75;2.40;;;21.60;70.70;;;;;;4970947;28;20041;-59
2023/09/06 10:21:53;;;;;;;3.03;2.72;;;21.60;70.70;;;;;;4972216;28;20030;-60
2023/09/06 10:24:21;;;;;;;2.40;2.20;;;21.60;70.70;;;;;;4972000;28;20038;-60
2023/09/06 10:26:48;;;;;;;2.80;2.50;;;21.60;70.70;;;;;;4973925;28;20089;-60
2023/09/06 10:29:23;;;;;;;3.45;2.28;;;21.60;70.60;;;;;;4969005;28;20034;-59
2023/09/06 10:31:51;;;;;;;3.13;2.45;;;21.60;70.60;;;;;;4970469;28;20065;-59
2023/09/06 10:34:18;;;;;;;2.80;2.22;;;21.60;70.60;;;;;;4973629;28;20392;-59
2023/09/06 10:36:51;;;;;;;2.83;2.40;;;21.60;70.50;;;;;;4971846;28;20027;-57
2023/09/06 10:39:21;;;;;;;2.78;2.17;;;21.60;70.60;;;;;;4969916;28;20027;-58
2023/09/06 10:42:08;;;;;;;2.50;2.30;;;21.60;70.60;;;;;;4969379;28;20023;-60
2023/09/06 10:44:54;;;;;;;2.40;2.20;;;21.60;70.60;;;;;;4971049;28;20502;-59
2023/09/06 10:47:33;;;;;;;3.00;2.67;;;21.60;70.60;;;;;;4960674;28;20465;-60
2023/09/06 10:50:16;;;;;;;2.30;2.10;;;21.60;71.10;;;;;;4969312;28;20031;-58
2023/09/06 10:52:56;;;;;;;2.58;2.38;;;21.60;70.50;;;;;;4986996;23;20133;-59
2023/09/06 10:55:26;;;;;;;2.58;2.38;;;21.60;70.50;;;;;;4998668;28;20029;-57
2023/09/06 10:58:06;;;;;;;2.47;2.20;;;21.60;70.60;;;;;;4997592;28;20026;-57
2023/09/06 11:00:34;;;;;;;2.40;2.17;;;21.60;70.50;;;;;;4998433;28;20026;-58
2023/09/06 11:03:08;;;;;;;2.58;2.33;;;21.60;70.50;;;;;;5001259;28;20029;-60
2023/09/06 11:06:04;;;;;;;2.30;2.10;;;21.60;70.50;;;;;;4998937;28;20034;-56
2023/09/06 11:08:30;;;;;;;;;;;21.60;70.50;;;;;;4997823;28;20030;-59
2023/09/06 11:11:05;;;;;;;2.20;2.00;;;21.60;70.50;;;;;;4994923;28;20000;-58
2023/09/06 11:13:33;;;;;;;2.17;1.98;;;21.60;70.50;;;;;;4997786;28;20064;-58
2023/09/06 11:16:00;;;;;;;2.10;1.90;;;21.60;70.50;;;;;;4982136;28;20224;-58
2023/09/06 11:18:32;;;;;;;2.40;2.20;;;21.60;70.50;;;;;;4999242;28;20026;-57
2023/09/06 11:20:59;;;;;;;2.83;2.17;;;21.60;70.40;;;;;;5001593;28;20462;-57
2023/09/06 11:23:26;;;;;;;3.08;2.28;;;21.60;70.50;;;;;;4997779;28;20113;-58
2023/09/06 11:25:58;;;;;;;2.97;2.60;;;21.60;70.30;;;;;;4985426;28;20038;-56
2023/09/06 11:28:29;;;;;;;2.10;1.90;;;21.60;70.50;;;;;;5000337;28;20034;-58
2023/09/06 11:30:55;;;;;;;2.08;1.90;;;21.60;70.40;;;;;;4997207;28;20121;-59
2023/09/06 11:33:29;;;;;;;2.90;2.47;;;21.60;70.30;;;;;;4980193;28;20042;-59
2023/09/06 11:35:58;;;;;;;2.30;2.10;;;21.60;70.30;;;;;;4997459;28;20741;-60
2023/09/06 11:38:33;;;;;;;2.03;1.92;;;21.60;70.30;;;;;;4996888;28;20038;-56
2023/09/06 11:41:03;;;;;;;2.20;2.00;;;21.60;70.30;;;;;;4997226;28;20033;-57
2023/09/06 11:43:30;;;;;;;2.85;2.63;;;21.60;70.20;;;;;;5001127;28;20034;-57
2023/09/06 11:46:00;;;;;;;3.55;2.40;;;21.60;70.30;;;;;;5002805;28;20027;-55
2023/09/06 11:48:30;;;;;;;2.58;2.38;;;21.60;70.30;;;;;;5000928;28;20041;-58
2023/09/06 11:51:08;;;;;;;3.72;2.63;;;21.60;70.00;;;;;;5000271;28;20530;-56
2023/09/06 11:53:35;;;;;;;2.95;2.40;;;21.60;70.10;;;;;;4997703;28;20050;-54
2023/09/06 11:56:00;;;;;;;2.70;2.50;;;21.60;70.10;;;;;;5005261;28;20036;-58
2023/09/06 11:58:27;;;;;;;2.30;2.10;;;21.60;70.00;;;;;;5000398;28;20027;-59
2023/09/06 12:00:55;;;;;;;2.40;2.20;;;21.60;70.00;;;;;;5000610;28;20030;-59
2023/09/06 12:03:29;;;;;;;2.38;2.17;;;21.60;70.10;;;;;;4994536;28;20034;-55
2023/09/06 12:05:59;;;;;;;2.63;2.30;;;21.60;70.00;;;;;;4994562;28;20124;-57
2023/09/06 12:08:27;;;;;;;2.28;2.08;;;21.60;70.10;;;;;;4995112;28;20065;-58
2023/09/06 12:10:59;;;;;;;2.72;2.33;;;21.60;70.00;;;;;;4996243;28;20034;-57
2023/09/06 12:13:34;;;;;;;2.33;2.13;;;21.60;70.00;;;;;;4999363;28;20120;-58
2023/09/06 12:16:01;;;;;;;2.72;2.35;;;21.60;69.80;;;;;;5003583;28;20206;-56
2023/09/06 12:18:28;;;;;;;3.90;2.10;;;21.60;70.00;;;;;;4982230;28;20034;-54
2023/09/06 12:20:54;;;;;;;4.75;2.42;;;21.60;70.00;;;;;;5001263;28;20034;-58
2023/09/06 12:23:28;;;;;;;3.20;2.25;;;21.60;70.10;;;;;;4982238;28;20434;-58
2023/09/06 12:25:55;;;;;;;4.30;2.25;;;21.70;70.30;;;;;;4997596;28;20065;-58
2023/09/06 12:28:20;;;;;;;8.02;2.92;;;21.70;70.20;;;;;;4999321;28;20053;-57
2023/09/06 12:30:46;;;;;;;4.32;2.50;;;21.70;70.30;;;;;;4977152;28;20074;-59
2023/09/06 12:33:14;;;;;;;3.88;2.13;;;21.70;70.30;;;;;;4995791;28;20046;-54
2023/09/06 12:35:40;;;;;;;2.72;2.33;;;21.70;70.30;;;;;;4993215;28;20412;-57
2023/09/06 12:38:06;;;;;;;4.45;2.50;;;21.70;70.40;;;;;;4981637;28;20033;-58
2023/09/06 12:40:33;;;;;;;2.47;2.28;;;21.70;70.30;;;;;;4997573;28;20026;-58
2023/09/06 12:42:59;;;;;;;3.03;2.33;;;21.70;70.40;;;;;;5000820;28;20092;-59
2023/09/06 12:45:30;;;;;;;3.67;2.10;;;21.70;70.50;;;;;;5002745;28;20026;-57
2023/09/06 12:47:57;;;;;;;2.30;2.08;;;21.70;70.50;;;;;;4997217;28;20219;-56
2023/09/06 12:50:24;;;;;;;3.67;1.95;;;21.70;70.50;;;;;;4996334;28;20522;-60
2023/09/06 12:52:50;;;;;;;2.83;2.20;;;21.70;70.50;;;;;;4996562;28;20553;-56
2023/09/06 12:55:16;;;;;;;2.50;2.30;;;21.70;70.50;;;;;;4999696;28;20045;-58
2023/09/06 12:57:42;;;;;;;2.35;2.08;;;21.70;70.50;;;;;;5000047;28;20117;-58
2023/09/06 13:00:12;;;;;;;3.83;2.05;;;21.70;70.60;;;;;;4997999;28;20060;-57
2023/09/06 13:02:38;;;;;;;4.93;2.80;;;21.70;70.60;;;;;;4996941;28;20392;-55
2023/09/06 13:05:04;;;;;;;2.60;2.40;;;21.70;70.60;;;;;;4992946;28;20041;-55
2023/09/06 13:07:30;;;;;;;2.50;2.30;;;21.70;70.60;;;;;;4996880;28;20840;-56
2023/09/06 13:09:56;;;;;;;2.55;2.30;;;21.80;70.60;;;;;;4993118;28;20049;-60
2023/09/06 13:12:22;;;;;;;3.20;2.33;;;21.80;70.70;;;;;;4997947;28;20048;-58